createdAt,value
2019-02-04T00:01:39.484Z,100460.71
2019-02-04T00:04:10.446Z,100457.60
2019-02-04T00:06:41.343Z,100457.63
2019-02-04T00:09:12.431Z,100460.37
2019-02-04T00:11:43.526Z,100451.72
2019-02-04T00:14:14.705Z,100451.47
2019-02-04T00:16:45.494Z,100456.38
2019-02-04T00:19:16.684Z,100453.50
2019-02-04T00:21:48.670Z,100459.75
2019-02-04T00:24:19.787Z,100460.23
2019-02-04T00:26:51.895Z,100460.30
2019-02-04T00:29:22.905Z,100456.88
2019-02-04T00:31:53.779Z,100456.88
2019-02-04T00:34:25.075Z,100452.19
2019-02-04T00:36:55.984Z,100448.22
2019-02-04T00:39:27.320Z,100446.25
2019-02-04T00:41:58.156Z,100441.56
2019-02-04T00:44:29.247Z,100446.59
2019-02-04T00:47:00.046Z,100446.84
2019-02-04T00:49:31.034Z,100450.81
2019-02-04T00:52:02.221Z,100456.73
2019-02-04T00:54:33.197Z,100454.25
2019-02-04T00:57:04.108Z,100457.44
2019-02-04T00:59:35.004Z,100451.90
2019-02-04T01:02:06.483Z,100451.45
2019-02-04T01:04:37.660Z,100455.03
2019-02-04T01:07:08.954Z,100456.11
2019-02-04T01:09:40.885Z,100454.86
2019-02-04T01:12:11.765Z,100451.66
2019-02-04T01:14:42.747Z,100460.20
2019-02-04T01:17:13.868Z,100470.88
2019-02-04T01:19:45.227Z,100473.78
2019-02-04T01:22:15.951Z,100477.41
2019-02-04T01:24:48.197Z,100476.41
2019-02-04T01:27:19.428Z,100485.08
2019-02-04T01:29:50.636Z,100488.06
2019-02-04T01:32:21.554Z,100487.19
2019-02-04T01:34:52.725Z,100486.68
2019-02-04T01:37:23.632Z,100489.00
2019-02-04T01:39:54.605Z,100485.28
2019-02-04T01:42:25.496Z,100487.70
2019-02-04T01:44:56.397Z,100484.16
2019-02-04T01:47:27.184Z,100485.73
2019-02-04T01:49:58.155Z,100494.30
2019-02-04T01:52:29.060Z,100494.81
2019-02-04T01:55:00.452Z,100496.16
2019-02-04T01:57:31.338Z,100494.84
2019-02-04T02:00:02.224Z,100491.60
2019-02-04T02:02:33.121Z,100491.39
2019-02-04T02:05:04.219Z,100497.30
2019-02-04T02:07:35.494Z,100498.44
2019-02-04T02:10:06.895Z,100498.33
2019-02-04T02:12:37.595Z,100503.52
2019-02-04T02:15:08.674Z,100499.66
2019-02-04T02:17:39.867Z,100503.75
2019-02-04T02:20:13.289Z,100508.31
2019-02-04T02:22:44.199Z,100505.18
2019-02-04T02:25:15.195Z,100504.70
2019-02-04T02:27:46.257Z,100493.75
2019-02-04T02:30:23.173Z,100494.70
2019-02-04T02:32:54.112Z,100499.77
2019-02-04T02:35:25.174Z,100489.75
2019-02-04T02:37:56.196Z,100496.73
2019-02-04T02:40:32.100Z,100490.98
2019-02-04T02:43:03.413Z,100492.94
2019-02-04T02:45:34.828Z,100500.30
2019-02-04T02:48:05.876Z,100504.73
2019-02-04T02:50:36.884Z,100497.05
2019-02-04T02:53:07.669Z,100502.22
2019-02-04T02:55:38.940Z,100506.58
2019-02-04T02:58:09.827Z,100506.22
2019-02-04T03:00:40.922Z,100504.94
2019-02-04T03:03:11.826Z,100507.48
2019-02-04T03:05:42.803Z,100513.64
2019-02-04T03:08:14.116Z,100522.78
2019-02-04T03:10:45.111Z,100529.27
2019-02-04T03:13:15.971Z,100526.97
2019-02-04T03:15:46.919Z,100523.97
2019-02-04T03:18:17.850Z,100529.06
2019-02-04T03:20:48.763Z,100527.34
2019-02-04T03:23:19.552Z,100525.34
2019-02-04T03:25:50.721Z,100530.28
2019-02-04T03:28:21.604Z,100534.38
2019-02-04T03:30:52.679Z,100537.02
2019-02-04T03:33:23.984Z,100537.12
2019-02-04T03:35:55.020Z,100534.84
2019-02-04T03:38:25.872Z,100537.36
2019-02-04T03:40:57.974Z,100533.50
2019-02-04T03:43:28.880Z,100537.14
2019-02-04T03:45:59.792Z,100529.80
2019-02-04T03:48:30.680Z,100532.92
2019-02-04T03:51:01.566Z,100527.16
2019-02-04T03:53:32.452Z,100522.08
2019-02-04T03:56:03.483Z,100519.08
2019-02-04T03:58:34.603Z,100513.67
2019-02-04T04:01:05.628Z,100510.91
2019-02-04T04:03:36.617Z,100513.34
2019-02-04T04:06:07.587Z,100503.70
2019-02-04T04:08:38.167Z,100507.31
2019-02-04T04:11:10.168Z,100510.69
2019-02-04T04:13:41.065Z,100512.96
2019-02-04T04:16:12.054Z,100515.86
2019-02-04T04:18:43.060Z,100515.98
2019-02-04T04:21:14.119Z,100512.96
2019-02-04T04:23:45.330Z,100514.28
2019-02-04T04:26:16.235Z,100514.06
2019-02-04T04:28:47.125Z,100519.11
2019-02-04T04:31:18.291Z,100517.56
2019-02-04T04:33:49.191Z,100523.45
2019-02-04T04:36:20.211Z,100525.13
2019-02-04T04:38:51.080Z,100528.60
2019-02-04T04:41:22.148Z,100534.92
2019-02-04T04:43:53.045Z,100538.57
2019-02-04T04:46:24.037Z,100536.86
2019-02-04T04:48:55.750Z,100541.70
2019-02-04T04:51:26.864Z,100548.20
2019-02-04T04:53:57.624Z,100546.16
2019-02-04T04:56:28.615Z,100541.36
2019-02-04T04:58:59.394Z,100544.95
2019-02-04T05:01:30.540Z,100544.59
2019-02-04T05:04:01.386Z,100548.30
2019-02-04T05:06:32.553Z,100543.50
2019-02-04T05:09:05.124Z,100546.66
2019-02-04T05:11:36.603Z,100541.67
2019-02-04T05:14:07.378Z,100546.84
2019-02-04T05:16:39.321Z,100549.37
2019-02-04T05:19:10.287Z,100547.11
2019-02-04T05:21:41.176Z,100546.51
2019-02-04T05:24:12.073Z,100550.00
2019-02-04T05:26:43.073Z,100557.09
2019-02-04T05:29:14.052Z,100566.35
2019-02-04T05:31:45.216Z,100579.06
2019-02-04T05:34:16.035Z,100568.50
2019-02-04T05:36:47.312Z,100561.36
2019-02-04T05:39:18.208Z,100559.33
2019-02-04T05:41:49.504Z,100561.86
2019-02-04T05:44:20.300Z,100564.51
2019-02-04T05:46:52.184Z,100562.31
2019-02-04T05:49:22.982Z,100565.52
2019-02-04T05:51:55.157Z,100563.11
2019-02-04T05:54:26.093Z,100560.78
2019-02-04T05:56:57.269Z,100558.29
2019-02-04T05:59:28.084Z,100559.23
2019-02-04T06:01:59.190Z,100550.55
2019-02-04T06:04:29.947Z,100555.25
2019-02-04T06:07:00.843Z,100542.62
2019-02-04T06:09:31.612Z,100539.02
2019-02-04T06:12:02.609Z,100541.73
2019-02-04T06:14:33.303Z,100534.89
2019-02-04T06:17:04.667Z,100527.72
2019-02-04T06:19:35.582Z,100525.43
2019-02-04T06:22:06.722Z,100527.37
2019-02-04T06:24:37.672Z,100523.88
2019-02-04T06:27:10.285Z,100523.59
2019-02-04T06:29:41.383Z,100529.65
2019-02-04T06:32:12.528Z,100521.45
2019-02-04T06:34:43.476Z,100513.38
2019-02-04T06:37:14.633Z,100516.64
2019-02-04T06:39:45.536Z,100519.63
2019-02-04T06:42:16.629Z,100515.15
2019-02-04T06:44:47.439Z,100523.37
2019-02-04T06:47:18.340Z,100521.48
2019-02-04T06:49:49.196Z,100529.23
2019-02-04T06:52:19.979Z,100536.12
2019-02-04T06:54:50.768Z,100530.62
2019-02-04T06:57:21.858Z,100542.42
2019-02-04T06:59:52.663Z,100548.40
2019-02-04T07:02:24.200Z,100545.94
2019-02-04T07:04:55.141Z,100557.36
2019-02-04T07:07:26.951Z,100556.40
2019-02-04T07:09:58.139Z,100551.70
2019-02-04T07:12:29.050Z,100550.90
2019-02-04T07:14:59.822Z,100559.33
2019-02-04T07:17:30.732Z,100566.03
2019-02-04T07:20:01.696Z,100569.67
2019-02-04T07:22:33.180Z,100577.13
2019-02-04T07:25:04.275Z,100571.11
2019-02-04T07:27:35.288Z,100578.89
2019-02-04T07:30:07.803Z,100580.83
2019-02-04T07:32:38.811Z,100586.62
2019-02-04T07:35:10.605Z,100593.40
2019-02-04T07:37:41.536Z,100593.06
2019-02-04T07:40:15.553Z,100591.17
2019-02-04T07:42:46.754Z,100583.84
2019-02-04T07:45:17.832Z,100589.30
2019-02-04T07:47:49.183Z,100590.63
2019-02-04T07:50:20.239Z,100597.11
2019-02-04T07:52:51.342Z,100593.41
2019-02-04T07:55:22.196Z,100589.70
2019-02-04T07:57:53.221Z,100598.33
2019-02-04T08:00:26.230Z,100602.44
2019-02-04T08:02:57.543Z,100604.98
2019-02-04T08:05:28.410Z,100605.71
2019-02-04T08:07:59.592Z,100608.02
2019-02-04T08:10:30.408Z,100607.30
2019-02-04T08:13:02.489Z,100604.20
2019-02-04T08:15:35.669Z,100606.35
2019-02-04T08:18:07.494Z,100607.69
2019-02-04T08:20:38.464Z,100607.34
2019-02-04T08:23:09.361Z,100607.56
2019-02-04T08:25:40.539Z,100604.58
2019-02-04T08:28:11.423Z,100609.63
2019-02-04T08:30:42.208Z,100606.38
2019-02-04T08:33:13.192Z,100606.77
2019-02-04T08:35:44.097Z,100602.41
2019-02-04T08:38:14.983Z,100598.09
2019-02-04T08:40:45.868Z,100592.92
2019-02-04T08:43:16.763Z,100591.09
2019-02-04T08:45:47.640Z,100592.20
2019-02-04T08:48:18.912Z,100600.63
2019-02-04T08:50:49.832Z,100597.72
2019-02-04T08:53:20.846Z,100599.55
2019-02-04T08:55:51.856Z,100601.34
2019-02-04T08:58:22.883Z,100591.47
2019-02-04T09:00:53.784Z,100588.22
2019-02-04T09:03:24.775Z,100590.61
2019-02-04T09:05:55.773Z,100584.10
2019-02-04T09:08:26.739Z,100575.63
2019-02-04T09:10:57.722Z,100570.70
2019-02-04T09:13:28.735Z,100562.00
2019-02-04T09:15:59.625Z,100567.30
2019-02-04T09:18:30.593Z,100562.23
2019-02-04T09:21:01.682Z,100558.34
2019-02-04T09:23:32.734Z,100562.44
2019-02-04T09:26:03.691Z,100556.75
2019-02-04T09:28:34.573Z,100560.20
2019-02-04T09:31:05.556Z,100562.73
2019-02-04T09:33:37.012Z,100570.25
2019-02-04T09:36:08.042Z,100571.25
2019-02-04T09:38:39.104Z,100565.95
2019-02-04T09:41:10.019Z,100576.75
2019-02-04T09:43:41.001Z,100575.42
2019-02-04T09:46:11.909Z,100578.45
2019-02-04T09:48:42.800Z,100586.14
2019-02-04T09:51:13.667Z,100580.67
2019-02-04T09:53:44.580Z,100589.91
2019-02-04T09:56:15.438Z,100584.78
2019-02-04T09:58:46.639Z,100585.70
2019-02-04T10:01:17.544Z,100582.19
2019-02-04T10:03:48.514Z,100589.14
2019-02-04T10:06:20.442Z,100589.58
2019-02-04T10:08:51.446Z,100580.95
2019-02-04T10:11:22.415Z,100577.30
2019-02-04T10:13:54.034Z,100576.37
2019-02-04T10:16:24.909Z,100566.36
2019-02-04T10:18:55.971Z,100570.78
2019-02-04T10:21:26.793Z,100565.47
2019-02-04T10:23:57.789Z,100558.95
2019-02-04T10:26:28.690Z,100560.23
2019-02-04T10:28:59.627Z,100559.06
2019-02-04T10:31:30.538Z,100559.47
2019-02-04T10:34:01.576Z,100563.54
2019-02-04T10:36:32.407Z,100551.83
2019-02-04T10:39:04.941Z,100542.97
2019-02-04T10:41:37.618Z,100538.75
2019-02-04T10:44:08.674Z,100533.16
2019-02-04T10:46:39.668Z,100528.77
2019-02-04T10:49:10.682Z,100528.14
2019-02-04T10:51:41.559Z,100530.80
2019-02-04T10:54:12.327Z,100531.73
2019-02-04T10:56:43.134Z,100527.16
2019-02-04T10:59:14.087Z,100527.39
2019-02-04T11:01:45.089Z,100516.45
2019-02-04T11:04:16.496Z,100512.63
2019-02-04T11:06:47.595Z,100509.19
2019-02-04T11:09:18.579Z,100506.82
2019-02-04T11:11:49.234Z,100501.83
2019-02-04T11:14:20.239Z,100491.27
2019-02-04T11:16:51.340Z,100484.60
2019-02-04T11:19:22.382Z,100475.06
2019-02-04T11:21:53.315Z,100478.67
2019-02-04T11:24:24.384Z,100464.39
2019-02-04T11:26:55.308Z,100462.37
2019-02-04T11:29:26.705Z,100452.45
2019-02-04T11:31:57.601Z,100453.91
2019-02-04T11:34:28.608Z,100447.50
2019-02-04T11:36:59.469Z,100450.02
2019-02-04T11:39:30.511Z,100442.87
2019-02-04T11:42:01.330Z,100444.13
2019-02-04T11:44:32.326Z,100436.16
2019-02-04T11:47:03.317Z,100433.33
2019-02-04T11:49:34.348Z,100433.39
2019-02-04T11:52:05.294Z,100426.16
2019-02-04T11:54:36.467Z,100421.08
2019-02-04T11:57:07.365Z,100416.91
2019-02-04T11:59:38.383Z,100418.47
2019-02-04T12:02:09.858Z,100411.20
2019-02-04T12:04:40.845Z,100404.08
2019-02-04T12:07:11.828Z,100398.62
2019-02-04T12:09:42.838Z,100394.78
2019-02-04T12:12:13.935Z,100397.39
2019-02-04T12:14:44.990Z,100389.41
2019-02-04T12:17:15.863Z,100384.66
2019-02-04T12:19:46.683Z,100372.39
2019-02-04T12:22:17.793Z,100369.76
2019-02-04T12:24:49.059Z,100369.06
2019-02-04T12:27:31.544Z,100372.10
2019-02-04T12:29:52.958Z,100373.88
2019-02-04T12:32:23.797Z,100365.98
2019-02-04T12:34:54.778Z,100367.15
2019-02-04T12:37:25.563Z,100361.70
2019-02-04T12:39:56.527Z,100360.92
2019-02-04T12:42:27.437Z,100365.98
2019-02-04T12:44:59.243Z,100366.45
2019-02-04T12:47:30.351Z,100365.91
2019-02-04T12:50:01.345Z,100367.66
2019-02-04T12:52:32.328Z,100360.67
2019-02-04T12:55:03.596Z,100362.77
2019-02-04T12:57:34.491Z,100362.92
2019-02-04T13:00:11.608Z,100361.43
2019-02-04T13:02:42.634Z,100362.86
2019-02-04T13:05:26.073Z,100350.32
2019-02-04T13:07:56.906Z,100354.20
2019-02-04T13:10:28.115Z,100359.78
2019-02-04T13:12:59.171Z,100351.83
2019-02-04T13:15:30.168Z,100357.65
2019-02-04T13:18:01.177Z,100355.50
2019-02-04T13:20:32.152Z,100359.98
2019-02-04T13:23:03.230Z,100352.52
2019-02-04T13:25:34.707Z,100348.30
2019-02-04T13:28:07.664Z,100354.29
2019-02-04T13:30:38.681Z,100350.53
2019-02-04T13:33:09.781Z,100352.83
2019-02-04T13:35:41.163Z,100352.63
2019-02-04T13:38:12.143Z,100350.49
2019-02-04T13:40:44.661Z,100351.77
2019-02-04T13:43:15.966Z,100347.97
2019-02-04T13:45:48.040Z,100347.89
2019-02-04T13:48:19.081Z,100342.72
2019-02-04T13:50:49.877Z,100345.39
2019-02-04T13:53:20.868Z,100345.01
2019-02-04T13:55:51.859Z,100343.94
2019-02-04T13:58:22.723Z,100342.34
2019-02-04T14:00:53.757Z,100345.34
2019-02-04T14:03:24.728Z,100337.81
2019-02-04T14:05:55.795Z,100339.47
2019-02-04T14:08:26.678Z,100339.31
2019-02-04T14:10:57.695Z,100340.52
2019-02-04T14:13:28.784Z,100339.70
2019-02-04T14:15:59.862Z,100341.88
2019-02-04T14:18:30.753Z,100343.94
2019-02-04T14:21:02.850Z,100343.45
2019-02-04T14:23:33.653Z,100343.58
2019-02-04T14:26:04.662Z,100346.77
2019-02-04T14:28:35.534Z,100348.33
2019-02-04T14:31:06.565Z,100347.97
2019-02-04T14:33:37.527Z,100346.99
2019-02-04T14:36:08.645Z,100346.34
2019-02-04T14:38:39.490Z,100354.32
2019-02-04T14:41:10.474Z,100345.39
2019-02-04T14:43:54.792Z,100347.59
2019-02-04T14:46:31.866Z,100338.73
2019-02-04T14:49:41.730Z,100347.94
2019-02-04T14:52:44.490Z,100344.06
2019-02-04T14:55:59.237Z,100338.70
2019-02-04T14:59:08.891Z,100338.47
2019-02-04T15:02:17.095Z,100335.83
2019-02-04T15:05:21.259Z,100329.64
2019-02-04T15:08:38.161Z,100330.42
2019-02-04T15:11:46.884Z,100326.96
2019-02-04T15:15:07.386Z,100323.69
2019-02-04T15:18:13.529Z,100323.16
2019-02-04T15:21:07.429Z,100320.05
2019-02-04T15:24:16.099Z,100317.03
2019-02-04T15:27:08.901Z,100312.98
2019-02-04T15:29:56.636Z,100313.58
2019-02-04T15:32:54.000Z,100313.84
2019-02-04T15:36:04.226Z,100315.61
2019-02-04T15:38:55.274Z,100314.59
2019-02-04T15:41:53.824Z,100316.20
2019-02-04T15:45:13.632Z,100316.88
2019-02-04T15:48:25.633Z,100314.81
2019-02-04T15:51:26.387Z,100321.09
2019-02-04T15:53:58.786Z,100314.96
2019-02-04T15:56:29.783Z,100317.67
2019-02-04T15:59:00.792Z,100318.78
2019-02-04T16:01:31.673Z,100322.66
2019-02-04T16:04:22.875Z,100326.05
2019-02-04T16:06:53.812Z,100326.78
2019-02-04T16:09:24.828Z,100325.06
2019-02-04T16:11:55.698Z,100330.92
2019-02-04T16:14:26.862Z,100330.80
2019-02-04T16:16:57.975Z,100334.39
2019-02-04T16:19:29.081Z,100332.00
2019-02-04T16:21:59.870Z,100333.70
2019-02-04T16:24:30.946Z,100335.41
2019-02-04T16:27:02.054Z,100335.61
2019-02-04T16:29:33.162Z,100339.20
2019-02-04T16:32:04.893Z,100341.09
2019-02-04T16:34:36.144Z,100339.57
2019-02-04T16:37:07.014Z,100334.48
2019-02-04T16:39:38.026Z,100334.48
2019-02-04T16:42:09.195Z,100335.89
2019-02-04T16:44:40.314Z,100334.15
2019-02-04T16:47:11.198Z,100337.69
2019-02-04T16:49:42.190Z,100335.10
2019-02-04T16:52:13.295Z,100340.01
2019-02-04T16:54:44.925Z,100342.11
2019-02-04T16:57:15.757Z,100341.33
2019-02-04T16:59:46.770Z,100344.61
2019-02-04T17:02:17.651Z,100351.14
2019-02-04T17:04:48.730Z,100352.79
2019-02-04T17:07:19.618Z,100353.08
2019-02-04T17:09:50.631Z,100349.37
2019-02-04T17:12:21.813Z,100353.41
2019-02-04T17:14:52.891Z,100356.78
2019-02-04T17:17:23.775Z,100352.91
2019-02-04T17:19:54.870Z,100355.23
2019-02-04T17:22:25.776Z,100358.52
2019-02-04T17:24:56.655Z,100361.56
2019-02-04T17:27:27.536Z,100362.89
2019-02-04T17:29:58.499Z,100369.39
2019-02-04T17:32:29.428Z,100364.48
2019-02-04T17:35:00.998Z,100370.64
2019-02-04T17:37:31.795Z,100376.09
2019-02-04T17:40:02.846Z,100368.60
2019-02-04T17:42:34.207Z,100375.95
2019-02-04T17:45:06.119Z,100378.38
2019-02-04T17:47:37.293Z,100395.30
2019-02-04T17:50:09.308Z,100386.05
2019-02-04T17:52:40.114Z,100393.80
2019-02-04T17:55:14.456Z,100388.71
2019-02-04T17:57:45.245Z,100391.31
2019-02-04T18:00:22.635Z,100383.77
2019-02-04T18:02:53.602Z,100391.74
2019-02-04T18:05:24.537Z,100390.16
2019-02-04T18:07:55.080Z,100393.02
2019-02-04T18:10:25.786Z,100388.78
2019-02-04T18:12:56.516Z,100388.12
2019-02-04T18:15:27.797Z,100393.95
2019-02-04T18:17:58.342Z,100396.58
2019-02-04T18:20:29.145Z,100397.53
2019-02-04T18:22:59.896Z,100393.35
2019-02-04T18:25:31.071Z,100395.78
2019-02-04T18:28:01.842Z,100393.27
2019-02-04T18:30:33.136Z,100389.98
2019-02-04T18:33:04.140Z,100396.97
2019-02-04T18:35:35.503Z,100398.30
2019-02-04T18:38:06.511Z,100398.30
2019-02-04T18:40:37.514Z,100393.80
2019-02-04T18:43:08.409Z,100387.00
2019-02-04T18:45:39.580Z,100389.66
2019-02-04T18:48:10.470Z,100391.42
2019-02-04T18:50:42.985Z,100398.39
2019-02-04T18:53:13.808Z,100389.75
2019-02-04T18:55:44.785Z,100391.42
2019-02-04T18:58:15.689Z,100386.81
2019-02-04T19:00:47.080Z,100387.86
2019-02-04T19:03:17.952Z,100394.36
2019-02-04T19:05:48.967Z,100398.15
2019-02-04T19:08:20.035Z,100402.38
2019-02-04T19:10:51.038Z,100397.96
2019-02-04T19:13:21.596Z,100396.20
2019-02-04T19:15:52.344Z,100390.38
2019-02-04T19:18:23.292Z,100397.72
2019-02-04T19:20:55.273Z,100395.36
2019-02-04T19:23:27.006Z,100397.01
2019-02-04T19:25:58.092Z,100394.59
2019-02-04T19:28:29.092Z,100393.64
2019-02-04T19:31:07.428Z,100400.42
2019-02-04T19:33:38.239Z,100396.87
2019-02-04T19:36:10.667Z,100395.91
2019-02-04T19:38:41.615Z,100397.48
2019-02-04T19:41:12.407Z,100396.64
2019-02-04T19:43:43.427Z,100404.02
2019-02-04T19:46:14.440Z,100399.27
2019-02-04T19:48:45.290Z,100402.13
2019-02-04T19:51:16.467Z,100398.23
2019-02-04T19:53:48.671Z,100405.25
2019-02-04T19:56:19.822Z,100392.93
2019-02-04T19:58:50.576Z,100389.32
2019-02-04T20:09:55.201Z,100384.03
2019-02-04T20:12:25.992Z,100381.42
2019-02-04T20:14:57.180Z,100376.30
2019-02-04T20:17:28.212Z,100380.51
2019-02-04T20:19:59.122Z,100376.87
2019-02-04T20:22:30.857Z,100376.67
2019-02-04T20:25:01.782Z,100373.16
2019-02-04T20:27:33.985Z,100369.32
2019-02-04T20:30:06.168Z,100367.86
2019-02-04T20:32:37.040Z,100373.30
2019-02-04T20:35:08.043Z,100374.77
2019-02-04T20:37:39.042Z,100374.16
2019-02-04T20:40:10.875Z,100376.00
2019-02-04T20:42:41.822Z,100377.48
2019-02-04T20:45:13.337Z,100375.20
2019-02-04T20:47:44.531Z,100372.89
2019-02-04T20:50:20.698Z,100372.59
2019-02-04T20:52:51.642Z,100373.92
2019-02-04T20:55:22.703Z,100380.50
2019-02-04T20:57:53.776Z,100384.30
2019-02-04T21:00:26.308Z,100386.25
2019-02-04T21:02:57.645Z,100385.47
2019-02-04T21:05:28.714Z,100380.36
2019-02-04T21:07:59.917Z,100383.73
2019-02-04T21:10:31.015Z,100380.06
2019-02-04T21:13:02.010Z,100380.92
2019-02-04T21:15:32.874Z,100387.41
2019-02-04T21:18:04.155Z,100383.91
2019-02-04T21:20:35.078Z,100385.33
2019-02-04T21:23:06.773Z,100384.88
2019-02-04T21:25:37.883Z,100387.90
2019-02-04T21:28:08.954Z,100383.88
2019-02-04T21:30:42.716Z,100394.49
2019-02-04T21:33:13.991Z,100391.93
2019-02-04T21:35:44.906Z,100393.83
2019-02-04T21:38:16.259Z,100398.62
2019-02-04T21:40:47.287Z,100396.83
2019-02-04T21:43:18.486Z,100395.83
2019-02-04T21:45:49.279Z,100397.30
2019-02-04T21:48:20.338Z,100398.20
2019-02-04T21:50:51.565Z,100405.68
2019-02-04T21:53:22.555Z,100400.00
2019-02-04T21:55:53.423Z,100399.75
2019-02-04T21:58:24.430Z,100403.98
2019-02-04T22:00:55.320Z,100393.98
2019-02-04T22:03:26.595Z,100393.69
2019-02-04T22:05:57.399Z,100401.22
2019-02-04T22:08:28.288Z,100393.20
2019-02-04T22:10:59.470Z,100403.27
2019-02-04T22:13:30.474Z,100399.24
2019-02-04T22:16:01.259Z,100407.44
2019-02-04T22:18:32.335Z,100404.88
2019-02-04T22:21:03.115Z,100401.52
2019-02-04T22:23:34.014Z,100398.02
2019-02-04T22:26:04.997Z,100403.98
2019-02-04T22:28:35.891Z,100398.61
2019-02-04T22:31:06.890Z,100399.70
2019-02-04T22:33:37.867Z,100390.65
2019-02-04T22:36:08.748Z,100399.66
2019-02-04T22:38:39.897Z,100394.83
2019-02-04T22:41:10.847Z,100402.61
2019-02-04T22:43:41.769Z,100404.78
2019-02-04T22:46:12.611Z,100396.02
2019-02-04T22:48:43.500Z,100406.20
2019-02-04T22:51:14.373Z,100414.31
2019-02-04T22:53:45.657Z,100407.53
2019-02-04T22:56:16.480Z,100414.58
2019-02-04T22:58:47.657Z,100416.56
2019-02-04T23:01:39.323Z,100420.27
2019-02-04T23:04:10.759Z,100427.75
2019-02-04T23:06:41.635Z,100431.02
2019-02-04T23:09:12.626Z,100436.19
2019-02-04T23:11:43.597Z,100432.73
2019-02-04T23:14:14.500Z,100429.53
2019-02-04T23:16:45.395Z,100434.91
2019-02-04T23:19:16.394Z,100433.10
2019-02-04T23:21:47.156Z,100433.14
2019-02-04T23:24:18.224Z,100431.95
2019-02-04T23:26:49.046Z,100419.87
2019-02-04T23:29:20.219Z,100428.44
2019-02-04T23:31:51.316Z,100425.48
2019-02-04T23:34:22.208Z,100425.69
2019-02-04T23:36:54.112Z,100415.69
2019-02-04T23:39:25.262Z,100418.00
2019-02-04T23:41:58.350Z,100423.58
2019-02-04T23:44:29.013Z,100422.31
2019-02-04T23:46:59.923Z,100418.70
2019-02-04T23:49:31.620Z,100417.23
2019-02-04T23:52:02.406Z,100416.79
2019-02-04T23:54:33.300Z,100416.55
2019-02-04T23:57:04.181Z,100416.69
2019-02-04T23:59:35.172Z,100416.18
